DLH4NF EDDB-EDDM
Flight info
| Callsign | DLH4NF |
|---|---|
| Flight time | 0h 47m |
| Altitude | 28000 |
| Route | LUROS3M LUROS Y211 BEBKU Z36 MAREM DCT VESUB T106 TUSTO T108 LANDU LANDU2A |
| Aircraft | A321/M-SDE3FGHIRWY/LB1 |
Departure
| Time | 2026-05-01 11:12 |
|---|---|
| Airport | Berlin Brandenburg Airport (EDDB) |
Arrival
| Time | 2026-05-01 11:59 |
|---|---|
| Airport | Munich Airport (EDDM) |
| Time | Latitude | Longitude | Altitude | Speed | Heading |
|---|---|---|---|---|---|
| 2026-05-01 10:34 | 52.36614 | 13.50444 | 155 ft | 0 kts | 69° |
| 2026-05-01 11:00 | 52.36606 | 13.50409 | 155 ft | 4 kts | 69° |
| 2026-05-01 11:00 | 52.36596 | 13.50368 | 155 ft | 4 kts | 69° |
| 2026-05-01 11:01 | 52.36586 | 13.50327 | 155 ft | 4 kts | 69° |
| 2026-05-01 11:01 | 52.36577 | 13.50292 | 155 ft | 2 kts | 69° |
| 2026-05-01 11:01 | 52.36565 | 13.50260 | 155 ft | 4 kts | 22° |
| 2026-05-01 11:01 | 52.36541 | 13.50258 | 155 ft | 4 kts | 339° |
| 2026-05-01 11:02 | 52.36519 | 13.50272 | 155 ft | 2 kts | 339° |
| 2026-05-01 11:02 | 52.36518 | 13.50273 | 155 ft | 0 kts | 339° |
| 2026-05-01 11:06 | 52.36518 | 13.50272 | 155 ft | 0 kts | 339° |
| 2026-05-01 11:06 | 52.36519 | 13.50272 | 155 ft | 1 kts | 339° |
| 2026-05-01 11:07 | 52.36577 | 13.50232 | 155 ft | 8 kts | 337° |
| 2026-05-01 11:07 | 52.36632 | 13.50193 | 155 ft | 10 kts | 336° |
| 2026-05-01 11:07 | 52.36707 | 13.50165 | 155 ft | 12 kts | 4° |
| 2026-05-01 11:07 | 52.36798 | 13.50187 | 155 ft | 14 kts | 8° |
| 2026-05-01 11:08 | 52.36862 | 13.50293 | 155 ft | 15 kts | 67° |
| 2026-05-01 11:08 | 52.36902 | 13.50458 | 155 ft | 16 kts | 70° |
| 2026-05-01 11:08 | 52.36989 | 13.50832 | 155 ft | 19 kts | 69° |
| 2026-05-01 11:09 | 52.37039 | 13.51040 | 155 ft | 20 kts | 68° |
| 2026-05-01 11:09 | 52.37094 | 13.51260 | 155 ft | 21 kts | 68° |
| 2026-05-01 11:09 | 52.37128 | 13.51407 | 155 ft | 13 kts | 69° |
| 2026-05-01 11:10 | 52.37201 | 13.51722 | 155 ft | 16 kts | 68° |
| 2026-05-01 11:10 | 52.37246 | 13.51902 | 155 ft | 18 kts | 68° |
| 2026-05-01 11:10 | 52.37322 | 13.52030 | 155 ft | 17 kts | 1° |
| 2026-05-01 11:10 | 52.37422 | 13.51924 | 155 ft | 19 kts | 302° |
| 2026-05-01 11:11 | 52.37443 | 13.51717 | 155 ft | 19 kts | 277° |
| 2026-05-01 11:11 | 52.37464 | 13.51500 | 155 ft | 19 kts | 282° |
| 2026-05-01 11:11 | 52.37427 | 13.51280 | 155 ft | 25 kts | 249° |
| 2026-05-01 11:11 | 52.37278 | 13.50648 | 155 ft | 98 kts | 249° |
| 2026-05-01 11:12 | 52.36950 | 13.49260 | 177 ft | 158 kts | 251° |
| 2026-05-01 11:12 | 52.36555 | 13.47583 | 889 ft | 157 kts | 250° |
| 2026-05-01 11:12 | 52.36161 | 13.45906 | 1572 ft | 163 kts | 251° |
| 2026-05-01 11:12 | 52.35736 | 13.44052 | 1893 ft | 186 kts | 251° |
| 2026-05-01 11:13 | 52.35264 | 13.41951 | 2242 ft | 208 kts | 251° |
| 2026-05-01 11:13 | 52.34746 | 13.39599 | 2505 ft | 232 kts | 251° |
| 2026-05-01 11:13 | 52.34180 | 13.37016 | 2866 ft | 254 kts | 251° |
| 2026-05-01 11:13 | 52.33567 | 13.34259 | 3625 ft | 261 kts | 248° |
| 2026-05-01 11:14 | 52.32574 | 13.31731 | 4267 ft | 270 kts | 222° |
| 2026-05-01 11:14 | 52.30967 | 13.30163 | 5019 ft | 272 kts | 195° |
| 2026-05-01 11:14 | 52.29090 | 13.29938 | 5790 ft | 273 kts | 169° |
| 2026-05-01 11:14 | 52.27216 | 13.30498 | 6569 ft | 276 kts | 168° |
| 2026-05-01 11:15 | 52.25297 | 13.30939 | 7334 ft | 280 kts | 170° |
| 2026-05-01 11:15 | 52.23356 | 13.31316 | 8109 ft | 282 kts | 170° |
| 2026-05-01 11:15 | 52.21394 | 13.31681 | 8870 ft | 285 kts | 170° |
| 2026-05-01 11:15 | 52.19408 | 13.32060 | 9624 ft | 289 kts | 170° |
| 2026-05-01 11:16 | 52.17396 | 13.32464 | 10384 ft | 292 kts | 169° |
| 2026-05-01 11:16 | 52.15355 | 13.32894 | 10732 ft | 309 kts | 169° |
| 2026-05-01 11:16 | 52.13143 | 13.33377 | 10883 ft | 332 kts | 169° |
| 2026-05-01 11:16 | 52.10782 | 13.33897 | 11071 ft | 350 kts | 169° |
| 2026-05-01 11:17 | 52.08337 | 13.34428 | 11585 ft | 357 kts | 169° |
| 2026-05-01 11:17 | 52.05858 | 13.34953 | 12225 ft | 360 kts | 169° |
| 2026-05-01 11:17 | 52.03347 | 13.35481 | 12799 ft | 366 kts | 169° |
| 2026-05-01 11:17 | 52.00812 | 13.35996 | 13196 ft | 368 kts | 169° |
| 2026-05-01 11:18 | 51.98264 | 13.36495 | 13590 ft | 369 kts | 169° |
| 2026-05-01 11:18 | 51.95694 | 13.36984 | 14088 ft | 373 kts | 169° |
| 2026-05-01 11:18 | 51.93106 | 13.37478 | 14677 ft | 376 kts | 168° |
| 2026-05-01 11:18 | 51.90530 | 13.38044 | 15205 ft | 379 kts | 168° |
| 2026-05-01 11:19 | 51.87896 | 13.38661 | 15767 ft | 383 kts | 167° |
| 2026-05-01 11:19 | 51.85245 | 13.39280 | 16302 ft | 386 kts | 168° |
| 2026-05-01 11:19 | 51.82594 | 13.39879 | 16833 ft | 390 kts | 168° |
| 2026-05-01 11:19 | 51.79888 | 13.40473 | 17369 ft | 394 kts | 168° |
| 2026-05-01 11:20 | 51.77150 | 13.41059 | 17903 ft | 398 kts | 169° |
| 2026-05-01 11:20 | 51.74392 | 13.41642 | 18415 ft | 402 kts | 169° |
| 2026-05-01 11:20 | 51.71599 | 13.42231 | 18885 ft | 405 kts | 169° |
| 2026-05-01 11:20 | 51.68789 | 13.42821 | 19318 ft | 408 kts | 169° |
| 2026-05-01 11:21 | 51.65959 | 13.43418 | 19769 ft | 411 kts | 169° |
| 2026-05-01 11:21 | 51.63116 | 13.44016 | 20221 ft | 414 kts | 169° |
| 2026-05-01 11:21 | 51.60252 | 13.44617 | 20682 ft | 416 kts | 169° |
| 2026-05-01 11:21 | 51.57399 | 13.45215 | 21122 ft | 418 kts | 169° |
| 2026-05-01 11:22 | 51.54501 | 13.45820 | 21561 ft | 421 kts | 169° |
| 2026-05-01 11:22 | 51.51580 | 13.46426 | 22003 ft | 424 kts | 169° |
| 2026-05-01 11:22 | 51.48650 | 13.47037 | 22439 ft | 426 kts | 169° |
| 2026-05-01 11:22 | 51.45686 | 13.47656 | 22876 ft | 429 kts | 169° |
| 2026-05-01 11:23 | 51.42713 | 13.48275 | 23310 ft | 432 kts | 169° |
| 2026-05-01 11:23 | 51.39758 | 13.48891 | 23743 ft | 434 kts | 169° |
| 2026-05-01 11:23 | 51.36749 | 13.49519 | 24138 ft | 437 kts | 169° |
| 2026-05-01 11:23 | 51.33724 | 13.50148 | 24491 ft | 440 kts | 169° |
| 2026-05-01 11:24 | 51.30669 | 13.50782 | 24794 ft | 444 kts | 169° |
| 2026-05-01 11:24 | 51.27598 | 13.51420 | 25145 ft | 446 kts | 169° |
| 2026-05-01 11:24 | 51.21404 | 13.52708 | 25862 ft | 451 kts | 169° |
| 2026-05-01 11:25 | 51.18280 | 13.53354 | 26213 ft | 453 kts | 169° |
| 2026-05-01 11:25 | 51.11994 | 13.54648 | 26909 ft | 458 kts | 170° |
| 2026-05-01 11:25 | 51.08821 | 13.55296 | 27251 ft | 460 kts | 170° |
| 2026-05-01 11:26 | 51.05640 | 13.55947 | 27595 ft | 462 kts | 170° |
| 2026-05-01 11:26 | 50.99217 | 13.57261 | 28251 ft | 467 kts | 170° |
| 2026-05-01 11:26 | 50.95982 | 13.57918 | 28578 ft | 469 kts | 170° |
| 2026-05-01 11:27 | 50.92735 | 13.58578 | 28884 ft | 471 kts | 170° |
| 2026-05-01 11:27 | 50.89515 | 13.59234 | 29175 ft | 473 kts | 170° |
| 2026-05-01 11:27 | 50.86235 | 13.59899 | 29461 ft | 475 kts | 171° |
| 2026-05-01 11:27 | 50.82947 | 13.60563 | 29729 ft | 477 kts | 171° |
| 2026-05-01 11:28 | 50.79637 | 13.61235 | 30015 ft | 478 kts | 171° |
| 2026-05-01 11:28 | 50.76340 | 13.61908 | 30347 ft | 478 kts | 170° |
| 2026-05-01 11:28 | 50.73024 | 13.62262 | 30416 ft | 473 kts | 179° |
| 2026-05-01 11:29 | 50.66652 | 13.60466 | 30421 ft | 469 kts | 197° |
| 2026-05-01 11:29 | 50.63547 | 13.58866 | 30413 ft | 468 kts | 197° |
| 2026-05-01 11:30 | 50.54231 | 13.54220 | 30422 ft | 468 kts | 196° |
| 2026-05-01 11:30 | 50.48016 | 13.51159 | 30418 ft | 468 kts | 196° |
| 2026-05-01 11:31 | 50.41808 | 13.48089 | 30415 ft | 467 kts | 197° |
| 2026-05-01 11:31 | 50.35604 | 13.45016 | 30413 ft | 467 kts | 197° |
| 2026-05-01 11:32 | 50.29408 | 13.41952 | 30411 ft | 467 kts | 196° |
| 2026-05-01 11:32 | 50.23238 | 13.38919 | 30410 ft | 467 kts | 196° |
| 2026-05-01 11:33 | 50.17026 | 13.35887 | 30412 ft | 467 kts | 196° |
| 2026-05-01 11:33 | 50.10808 | 13.32843 | 30416 ft | 468 kts | 196° |
| 2026-05-01 11:34 | 50.04579 | 13.29812 | 30414 ft | 468 kts | 196° |
| 2026-05-01 11:34 | 49.98400 | 13.26817 | 30423 ft | 468 kts | 196° |
| 2026-05-01 11:35 | 49.92175 | 13.23803 | 30426 ft | 468 kts | 196° |
| 2026-05-01 11:35 | 49.85958 | 13.20784 | 30431 ft | 468 kts | 196° |
| 2026-05-01 11:36 | 49.79728 | 13.17778 | 30428 ft | 468 kts | 196° |
| 2026-05-01 11:36 | 49.73484 | 13.14792 | 30432 ft | 469 kts | 196° |
| 2026-05-01 11:37 | 49.67282 | 13.11826 | 30421 ft | 469 kts | 196° |
| 2026-05-01 11:37 | 49.61017 | 13.08836 | 30421 ft | 470 kts | 196° |
| 2026-05-01 11:38 | 49.54800 | 13.05873 | 30426 ft | 470 kts | 196° |
| 2026-05-01 11:38 | 49.48549 | 13.02893 | 30422 ft | 470 kts | 196° |
| 2026-05-01 11:39 | 49.42301 | 12.99881 | 30419 ft | 470 kts | 200° |
| 2026-05-01 11:39 | 49.36359 | 12.95666 | 30413 ft | 470 kts | 205° |
| 2026-05-01 11:40 | 49.30457 | 12.91360 | 30412 ft | 476 kts | 205° |
| 2026-05-01 11:40 | 49.24399 | 12.86987 | 30087 ft | 485 kts | 205° |
| 2026-05-01 11:40 | 49.21324 | 12.84764 | 28763 ft | 492 kts | 205° |
| 2026-05-01 11:41 | 49.18255 | 12.82536 | 28255 ft | 483 kts | 205° |
| 2026-05-01 11:41 | 49.15230 | 12.80336 | 27957 ft | 478 kts | 205° |
| 2026-05-01 11:41 | 49.12219 | 12.78151 | 27666 ft | 476 kts | 204° |
| 2026-05-01 11:41 | 49.09262 | 12.76014 | 27389 ft | 474 kts | 204° |
| 2026-05-01 11:42 | 49.07254 | 12.74565 | 27192 ft | 473 kts | 204° |
| 2026-05-01 11:42 | 49.03318 | 12.71729 | 26823 ft | 471 kts | 204° |
| 2026-05-01 11:42 | 49.00361 | 12.69606 | 26541 ft | 469 kts | 204° |
| 2026-05-01 11:42 | 48.98401 | 12.68199 | 26355 ft | 467 kts | 204° |
| 2026-05-01 11:43 | 48.95450 | 12.66088 | 26078 ft | 465 kts | 204° |
| 2026-05-01 11:43 | 48.92521 | 12.63998 | 25809 ft | 463 kts | 204° |
| 2026-05-01 11:43 | 48.89604 | 12.61918 | 25539 ft | 462 kts | 204° |
| 2026-05-01 11:44 | 48.83831 | 12.57802 | 25410 ft | 460 kts | 204° |
| 2026-05-01 11:44 | 48.80927 | 12.55737 | 25406 ft | 460 kts | 204° |
| 2026-05-01 11:44 | 48.78027 | 12.53681 | 25407 ft | 461 kts | 204° |
| 2026-05-01 11:44 | 48.75062 | 12.51817 | 25407 ft | 460 kts | 198° |
| 2026-05-01 11:45 | 48.72045 | 12.50189 | 25407 ft | 460 kts | 198° |
| 2026-05-01 11:45 | 48.69025 | 12.48565 | 25404 ft | 460 kts | 198° |
| 2026-05-01 11:45 | 48.66084 | 12.46665 | 25397 ft | 461 kts | 209° |
| 2026-05-01 11:45 | 48.63534 | 12.43817 | 25403 ft | 462 kts | 224° |
| 2026-05-01 11:46 | 48.61511 | 12.40069 | 25399 ft | 461 kts | 239° |
| 2026-05-01 11:46 | 48.60152 | 12.35678 | 25402 ft | 459 kts | 252° |
| 2026-05-01 11:46 | 48.58920 | 12.31216 | 25104 ft | 463 kts | 242° |
| 2026-05-01 11:46 | 48.56942 | 12.27396 | 23856 ft | 461 kts | 221° |
| 2026-05-01 11:47 | 48.54273 | 12.24840 | 22166 ft | 451 kts | 199° |
| 2026-05-01 11:47 | 48.51264 | 12.23817 | 20600 ft | 437 kts | 184° |
| 2026-05-01 11:47 | 48.48288 | 12.22949 | 19106 ft | 434 kts | 199° |
| 2026-05-01 11:47 | 48.45755 | 12.20693 | 17739 ft | 428 kts | 222° |
| 2026-05-01 11:48 | 48.44065 | 12.17167 | 16934 ft | 406 kts | 249° |
| 2026-05-01 11:48 | 48.43519 | 12.13067 | 16542 ft | 397 kts | 272° |
| 2026-05-01 11:48 | 48.43854 | 12.09017 | 15227 ft | 388 kts | 283° |
| 2026-05-01 11:48 | 48.44369 | 12.04994 | 13547 ft | 392 kts | 283° |
| 2026-05-01 11:49 | 48.44885 | 12.00983 | 12091 ft | 387 kts | 283° |
| 2026-05-01 11:49 | 48.45379 | 11.97124 | 11491 ft | 360 kts | 282° |
| 2026-05-01 11:49 | 48.45824 | 11.93581 | 11200 ft | 330 kts | 281° |
| 2026-05-01 11:49 | 48.45844 | 11.90258 | 10763 ft | 311 kts | 262° |
| 2026-05-01 11:50 | 48.45564 | 11.87060 | 10033 ft | 305 kts | 263° |
| 2026-05-01 11:50 | 48.45317 | 11.83906 | 9207 ft | 302 kts | 264° |
| 2026-05-01 11:50 | 48.45086 | 11.80778 | 8460 ft | 298 kts | 263° |
| 2026-05-01 11:50 | 48.44862 | 11.77729 | 7756 ft | 294 kts | 263° |
| 2026-05-01 11:51 | 48.44636 | 11.74685 | 7053 ft | 290 kts | 263° |
| 2026-05-01 11:51 | 48.44410 | 11.71682 | 6451 ft | 288 kts | 263° |
| 2026-05-01 11:51 | 48.44185 | 11.68739 | 6317 ft | 277 kts | 262° |
| 2026-05-01 11:51 | 48.43967 | 11.65908 | 6177 ft | 268 kts | 262° |
| 2026-05-01 11:52 | 48.43753 | 11.63164 | 5966 ft | 261 kts | 262° |
| 2026-05-01 11:52 | 48.43542 | 11.60473 | 5692 ft | 257 kts | 262° |
| 2026-05-01 11:52 | 48.43332 | 11.57807 | 5425 ft | 254 kts | 262° |
| 2026-05-01 11:52 | 48.43126 | 11.55170 | 5087 ft | 254 kts | 261° |
| 2026-05-01 11:53 | 48.42918 | 11.52537 | 4774 ft | 251 kts | 262° |
| 2026-05-01 11:53 | 48.42631 | 11.49956 | 4427 ft | 249 kts | 248° |
| 2026-05-01 11:53 | 48.41777 | 11.47780 | 4186 ft | 242 kts | 223° |
| 2026-05-01 11:53 | 48.40412 | 11.46380 | 3990 ft | 235 kts | 197° |
| 2026-05-01 11:54 | 48.38832 | 11.45945 | 4004 ft | 232 kts | 175° |
| 2026-05-01 11:54 | 48.37287 | 11.46364 | 3989 ft | 222 kts | 153° |
| 2026-05-01 11:54 | 48.35966 | 11.47524 | 3998 ft | 219 kts | 135° |
| 2026-05-01 11:54 | 48.35005 | 11.49244 | 3997 ft | 215 kts | 117° |
| 2026-05-01 11:55 | 48.34482 | 11.51342 | 3997 ft | 216 kts | 99° |
| 2026-05-01 11:55 | 48.34450 | 11.53554 | 4028 ft | 206 kts | 84° |
| 2026-05-01 11:55 | 48.34618 | 11.55637 | 4011 ft | 196 kts | 83° |
| 2026-05-01 11:55 | 48.34778 | 11.57644 | 3938 ft | 191 kts | 83° |
| 2026-05-01 11:56 | 48.34932 | 11.59584 | 3767 ft | 183 kts | 83° |
| 2026-05-01 11:56 | 48.35080 | 11.61460 | 3545 ft | 179 kts | 84° |
| 2026-05-01 11:56 | 48.35223 | 11.63279 | 3316 ft | 172 kts | 84° |
| 2026-05-01 11:56 | 48.35357 | 11.64978 | 3097 ft | 155 kts | 83° |
| 2026-05-01 11:57 | 48.35476 | 11.66505 | 2880 ft | 143 kts | 83° |
| 2026-05-01 11:57 | 48.35591 | 11.67968 | 2689 ft | 141 kts | 84° |
| 2026-05-01 11:57 | 48.35704 | 11.69422 | 2511 ft | 139 kts | 82° |
| 2026-05-01 11:57 | 48.35815 | 11.70840 | 2311 ft | 137 kts | 82° |
| 2026-05-01 11:58 | 48.35925 | 11.72309 | 2163 ft | 142 kts | 84° |
| 2026-05-01 11:58 | 48.36043 | 11.73764 | 1946 ft | 138 kts | 85° |
| 2026-05-01 11:58 | 48.36263 | 11.76562 | 1586 ft | 133 kts | 83° |
| 2026-05-01 11:59 | 48.36363 | 11.77901 | 1487 ft | 118 kts | 82° |
| 2026-05-01 11:59 | 48.36433 | 11.78771 | 1484 ft | 59 kts | 83° |
| 2026-05-01 11:59 | 48.36443 | 11.79241 | 1482 ft | 32 kts | 102° |
| 2026-05-01 12:00 | 48.36338 | 11.79650 | 1484 ft | 9 kts | 111° |
| 2026-05-01 12:00 | 48.36323 | 11.79706 | 1481 ft | 0 kts | 113° |
| 2026-05-01 12:00 | 48.36321 | 11.79713 | 1474 ft | 1 kts | 113° |
| 2026-05-01 12:01 | 48.36314 | 11.79733 | 1475 ft | 3 kts | 116° |
| 2026-05-01 12:01 | 48.36291 | 11.79781 | 1479 ft | 9 kts | 132° |
| 2026-05-01 12:01 | 48.36253 | 11.79784 | 1478 ft | 7 kts | 229° |
| 2026-05-01 12:01 | 48.36227 | 11.79686 | 1485 ft | 11 kts | 259° |
| 2026-05-01 12:02 | 48.36218 | 11.79559 | 1485 ft | 13 kts | 265° |
| 2026-05-01 12:02 | 48.36186 | 11.79476 | 1478 ft | 9 kts | 202° |
| 2026-05-01 12:02 | 48.36122 | 11.79475 | 1485 ft | 10 kts | 173° |
| 2026-05-01 12:02 | 48.36043 | 11.79489 | 1477 ft | 12 kts | 173° |
| 2026-05-01 12:03 | 48.35963 | 11.79503 | 1484 ft | 12 kts | 173° |
| 2026-05-01 12:03 | 48.35871 | 11.79518 | 1481 ft | 14 kts | 174° |
| 2026-05-01 12:03 | 48.35821 | 11.79596 | 1483 ft | 10 kts | 94° |
| 2026-05-01 12:03 | 48.35827 | 11.79687 | 1485 ft | 8 kts | 80° |
| 2026-05-01 12:04 | 48.35834 | 11.79756 | 1474 ft | 6 kts | 83° |
| 2026-05-01 12:04 | 48.35838 | 11.79807 | 1477 ft | 4 kts | 83° |
| 2026-05-01 12:04 | 48.35840 | 11.79838 | 1482 ft | 2 kts | 84° |
| 2026-05-01 12:04 | 48.35841 | 11.79850 | 1481 ft | 0 kts | 84° |
| 2026-05-01 12:05 | 48.35841 | 11.79851 | 1481 ft | 0 kts | 84° |
| 2026-05-01 12:07 | 48.35842 | 11.79872 | 1485 ft | 5 kts | 84° |
| 2026-05-01 12:07 | 48.35847 | 11.79941 | 1481 ft | 8 kts | 84° |
| 2026-05-01 12:08 | 48.35830 | 11.80036 | 1476 ft | 12 kts | 137° |
| 2026-05-01 12:08 | 48.35746 | 11.80073 | 1480 ft | 13 kts | 172° |
| 2026-05-01 12:08 | 48.35667 | 11.80094 | 1474 ft | 10 kts | 169° |
| 2026-05-01 12:08 | 48.35602 | 11.80107 | 1485 ft | 8 kts | 173° |
| 2026-05-01 12:09 | 48.35550 | 11.80116 | 1485 ft | 7 kts | 173° |
| 2026-05-01 12:09 | 48.35523 | 11.80102 | 1485 ft | 3 kts | 232° |
| 2026-05-01 12:09 | 48.35514 | 11.80074 | 1476 ft | 3 kts | 255° |
| 2026-05-01 12:09 | 48.35509 | 11.80029 | 1478 ft | 4 kts | 262° |
| 2026-05-01 12:10 | 48.35508 | 11.80018 | 1482 ft | 0 kts | 263° |